Wakanami Maru — JD2484 — position and weather

sailwx.info

Track history (hours):
 
Tides and Currents Weather Stations Pressure Air Temp Water Temp Dewpoint Dewpoint Depression Visibility Wind Speed Wind Dir Waves Ship Positions

Wakanami Maru

Last reported at 2018-Jun-24 21:02 UTC. Time now 2018-Jun-25 17:33 UTC.
Position N 35°24' E 139°48'.

Length 74 m.

Type: Cargo ship. MMSI: 431000281.

Date/timePositionNaut miles runAvg speedWind from/ knotsBaromVisibWave heightAir tempDewpointWater temp
2018-Jun-24 21:02N 35°24' E 139°48'112.2
2018-Jun-24 20:57N 35°23' E 139°47'511.8
2018-Jun-24 20:30N 35°19' E 139°44'711.7
2018-Jun-24 19:55N 35°13' E 139°47'512.6
2018-Jun-24 19:30N 35°07' E 139°46'612.5
2018-Jun-24 19:00N 35°02' E 139°42'  
2018-Jun-22 01:20N 34°10' E 135°04'412.3
2018-Jun-22 00:59N 34°14' E 135°05'1 0.1
2018-Jun-21 04:49N 34°15' E 135°06'0 1.4
2018-Jun-21 04:29N 34°15' E 135°06'4 8.2
2018-Jun-21 04:01N 34°19' E 135°04'612.5
2018-Jun-21 03:30N 34°24' E 135°08'1812.8
2018-Jun-21 02:04N 34°38' E 135°23'  
2018-Jun-18 20:52N 34°39' E 135°28'0 0.0
2018-Jun-18 19:34N 34°39' E 135°28'0 0.0
2018-Jun-18 19:22N 34°39' E 135°28'0 0.0
2018-Jun-18 18:52N 34°39' E 135°28'0 0.0
2018-Jun-18 18:28N 34°39' E 135°28'0 0.0
2018-Jun-18 17:58N 34°39' E 135°28'0 0.0
2018-Jun-18 17:28N 34°39' E 135°28'0 0.0
2018-Jun-18 16:58N 34°39' E 135°28'0 0.0
2018-Jun-18 10:28N 34°39' E 135°28'0 0.0
2018-Jun-18 09:40N 34°39' E 135°28'0 0.0
2018-Jun-18 09:28N 34°39' E 135°28'0 0.0
2018-Jun-17 07:28N 34°39' E 135°28'1 0.1
2018-Jun-16 21:41N 34°39' E 135°27'2 8.9
2018-Jun-16 21:30N 34°39' E 135°25'612.1
2018-Jun-16 21:00N 34°35' E 135°19'712.1
2018-Jun-16 20:27N 34°30' E 135°13'511.6
2018-Jun-16 20:00N 34°27' E 135°09'611.3
2018-Jun-16 19:30N 34°22' E 135°05'510.9
2018-Jun-16 19:00N 34°18' E 135°00'610.6
2018-Jun-16 18:28N 34°13' E 135°00'712.5
2018-Jun-16 17:55N 34°06' E 135°01'512.8
2018-Jun-16 17:30N 34°00' E 135°02'  
Track history (hours):
 
Tides and Currents Weather Stations Pressure Air Temp Water Temp Dewpoint Dewpoint Depression Visibility Wind Speed Wind Dir Waves Ship Positions

Wakanami Maru

Last reported at 2018-Jun-24 21:02 UTC. Time now 2018-Jun-25 17:33 UTC.
Position N 35°24' E 139°48'.

Length 74 m.

Type: Cargo ship. MMSI: 431000281.

Date/timePositionNaut miles runAvg speedWind from/ knotsBaromVisibWave heightAir tempDewpointWater temp
2018-Jun-24 21:02N 35°24' E 139°48'112.2
2018-Jun-24 20:57N 35°23' E 139°47'511.8
2018-Jun-24 20:30N 35°19' E 139°44'711.7
2018-Jun-24 19:55N 35°13' E 139°47'512.6
2018-Jun-24 19:30N 35°07' E 139°46'612.5
2018-Jun-24 19:00N 35°02' E 139°42'  
2018-Jun-22 01:20N 34°10' E 135°04'412.3
2018-Jun-22 00:59N 34°14' E 135°05'1 0.1
2018-Jun-21 04:49N 34°15' E 135°06'0 1.4
2018-Jun-21 04:29N 34°15' E 135°06'4 8.2
2018-Jun-21 04:01N 34°19' E 135°04'612.5
2018-Jun-21 03:30N 34°24' E 135°08'1812.8
2018-Jun-21 02:04N 34°38' E 135°23'  
2018-Jun-18 20:52N 34°39' E 135°28'0 0.0
2018-Jun-18 19:34N 34°39' E 135°28'0 0.0
2018-Jun-18 19:22N 34°39' E 135°28'0 0.0
2018-Jun-18 18:52N 34°39' E 135°28'0 0.0
2018-Jun-18 18:28N 34°39' E 135°28'0 0.0
2018-Jun-18 17:58N 34°39' E 135°28'0 0.0
2018-Jun-18 17:28N 34°39' E 135°28'0 0.0
2018-Jun-18 16:58N 34°39' E 135°28'0 0.0
2018-Jun-18 10:28N 34°39' E 135°28'0 0.0
2018-Jun-18 09:40N 34°39' E 135°28'0 0.0
2018-Jun-18 09:28N 34°39' E 135°28'0 0.0
2018-Jun-17 07:28N 34°39' E 135°28'1 0.1
2018-Jun-16 21:41N 34°39' E 135°27'2 8.9
2018-Jun-16 21:30N 34°39' E 135°25'612.1
2018-Jun-16 21:00N 34°35' E 135°19'712.1
2018-Jun-16 20:27N 34°30' E 135°13'511.6
2018-Jun-16 20:00N 34°27' E 135°09'611.3
2018-Jun-16 19:30N 34°22' E 135°05'510.9
2018-Jun-16 19:00N 34°18' E 135°00'610.6
2018-Jun-16 18:28N 34°13' E 135°00'712.5
2018-Jun-16 17:55N 34°06' E 135°01'512.8
2018-Jun-16 17:30N 34°00' E 135°02'  

Dump ship's entire track history